Aden, Yemen
Current Conditions -  °F | °C
As of 12:00 AM on Tuesday 21 Oct 2014 (Local Time) from OYAA Reporting Station
Few Clouds Few Clouds  
Wind Chill: 84°   Ceiling: Unl
Heat Index: 84°   Visibility: 6mi
Dew Point: 59°   Wind: 6mph
Humidity: 42%   Direction: 70°ENE
Pressure: 29.91"   Gusts: NA
Location:  12.79°N, 45.03°E
Report Text: OYAA 202100Z 07005KT 9999 FEW020 29/15 Q1013
Loading
Personal Weather Stations






























Interactive Weather Map
Tropical Storm Tracking
New forecast layout! Learn more

10-Day Weather Forecast

Advertisements
Track Severe Weather on mobile